Aviation Digital Data Service (ADDS)

Output produced by METARs form (0912 UTC 19 April 2019)
found at http://www.aviationweather.gov/metar/data/
 
Forecast for: OAKN (KANDAHAR INTL AR, AF)
Text: TAF OAKN 190700Z 1907/2013 27009KT 9999 SKC QNH2995INS
Forecast period: 0700 to 1300 UTC 19 April 2019
Forecast type: FROM: standard forecast or significant change
Winds: from the W (270 degrees) at 10 MPH (9 knots; 4.6 m/s)
Visibility: 6 or more miles 10+ km)
Clouds: clear skies
Weather: no significant weather forecast for this period
Text: BECMG 1913/1914 27009KT 9999 FEW250 QNH2988INS WND VRB06KT AFT 1918 TX27/1911Z TN14/2001Z
Forecast period: 1300 UTC 19 April 2019 to 1300 UTC 20 April 2019
Forecast type: BECOMING: Conditions expected to become as follows by 1400 UTC 19 April 2019
Winds: from the W (270 degrees) at 10 MPH (9 knots; 4.6 m/s)
Visibility: 6 or more miles 10+ km)
Ceiling: at least 12,000 feet AGL
Clouds: few clouds at 25000 feet AGL
Weather: no significant weather forecast for this period